Time;durP1;ratioP1;P1;durP2;ratioP2;P2;SDS_P1;SDS_P2;PMS_P1;PMS_P2;Temp;Humidity;BMP_temperature;BMP_pressure;BME280_temperature;BME280_humidity;BME280_pressure;Samples;Min_cycle;Max_cycle;Signal;HPM_P1;HPM_P2
2024/02/28 00:01:37;;;;;;;106.00;25.25;;;2.80;99.90;;;;;;5027659;28;20087;-56
2024/02/28 00:04:03;;;;;;;129.93;27.60;;;2.80;99.90;;;;;;5028554;28;20049;-57
2024/02/28 00:06:29;;;;;;;77.82;26.02;;;2.80;99.90;;;;;;5025259;28;20025;-57
2024/02/28 00:08:54;;;;;;;123.97;27.52;;;2.90;99.90;;;;;;5025424;28;20048;-59
2024/02/28 00:11:20;;;;;;;113.93;26.42;;;2.90;99.90;;;;;;5028493;28;20029;-55
2024/02/28 00:13:46;;;;;;;70.80;22.85;;;2.90;99.90;;;;;;5018880;28;20076;-53
2024/02/28 00:16:12;;;;;;;90.65;24.45;;;2.90;99.90;;;;;;5047884;28;20060;-56
2024/02/28 00:18:37;;;;;;;99.28;24.80;;;2.80;99.90;;;;;;5051339;28;20028;-57
2024/02/28 00:21:03;;;;;;;103.03;22.85;;;2.70;99.90;;;;;;5058714;28;20567;-56
2024/02/28 00:23:29;;;;;;;102.25;23.08;;;2.70;99.90;;;;;;5051312;28;20116;-56
2024/02/28 00:25:55;;;;;;;118.50;22.27;;;2.70;99.90;;;;;;5049696;28;20106;-57
2024/02/28 00:28:21;;;;;;;94.35;25.95;;;2.70;99.90;;;;;;5051006;28;20041;-55
2024/02/28 00:30:46;;;;;;;100.18;24.33;;;2.70;99.90;;;;;;5050913;28;20033;-58
2024/02/28 00:33:12;;;;;;;88.55;24.55;;;2.80;99.90;;;;;;5049666;28;20033;-56
2024/02/28 00:35:39;;;;;;;115.47;23.58;;;2.80;99.90;;;;;;5050854;28;20029;-57
2024/02/28 00:38:05;;;;;;;103.18;25.75;;;2.80;99.90;;;;;;5050241;28;20052;-55
2024/02/28 00:40:30;;;;;;;136.18;25.83;;;2.80;99.90;;;;;;5051042;28;20061;-58
2024/02/28 00:42:57;;;;;;;112.00;24.95;;;2.80;99.90;;;;;;5050462;28;20524;-54
2024/02/28 00:45:23;;;;;;;83.57;26.33;;;2.90;99.90;;;;;;5049773;28;20390;-56
2024/02/28 00:47:49;;;;;;;123.20;27.95;;;2.90;99.90;;;;;;5050739;28;20032;-54
2024/02/28 00:50:14;;;;;;;100.18;26.98;;;3.00;99.90;;;;;;5052297;28;20030;-55
2024/02/28 00:52:41;;;;;;;131.30;27.20;;;3.00;99.90;;;;;;5050791;28;20033;-55
2024/02/28 00:55:07;;;;;;;82.32;25.48;;;3.00;99.90;;;;;;5050059;28;20017;-55
2024/02/28 00:57:32;;;;;;;99.75;23.92;;;3.00;99.90;;;;;;5050141;28;20367;-57
2024/02/28 00:59:58;;;;;;;114.40;24.13;;;3.00;99.90;;;;;;5050197;28;20086;-56
2024/02/28 01:02:24;;;;;;;74.65;23.55;;;3.00;99.90;;;;;;5049040;28;20025;-57
2024/02/28 01:04:50;;;;;;;86.47;24.02;;;3.00;99.90;;;;;;5048586;28;20051;-56
2024/02/28 01:07:15;;;;;;;75.50;26.38;;;2.90;99.90;;;;;;5048954;28;20029;-54
2024/02/28 01:09:41;;;;;;;143.50;25.23;;;3.00;99.90;;;;;;5050045;28;20032;-55
2024/02/28 01:12:06;;;;;;;76.45;25.15;;;3.00;99.90;;;;;;5048251;28;20029;-56
2024/02/28 01:14:32;;;;;;;80.30;26.90;;;3.00;99.90;;;;;;5049579;28;20067;-56
2024/02/28 01:16:57;;;;;;;88.90;27.02;;;3.10;99.90;;;;;;5047917;28;20035;-57
2024/02/28 01:19:23;;;;;;;104.43;26.60;;;3.00;99.90;;;;;;5050487;28;20053;-56
2024/02/28 01:21:49;;;;;;;87.63;25.85;;;3.00;99.90;;;;;;5029722;28;20052;-57
2024/02/28 01:24:15;;;;;;;114.75;28.88;;;3.10;99.90;;;;;;5049203;28;20025;-58
2024/02/28 01:26:41;;;;;;;100.13;28.98;;;3.10;99.90;;;;;;5049452;28;20220;-57
2024/02/28 01:29:07;;;;;;;95.70;31.95;;;3.10;99.90;;;;;;5048505;28;20045;-58
2024/02/28 01:31:32;;;;;;;116.80;31.20;;;3.10;99.90;;;;;;5049058;28;20061;-54
2024/02/28 01:33:58;;;;;;;104.85;28.35;;;3.10;99.90;;;;;;5047868;28;20017;-57
2024/02/28 01:36:23;;;;;;;90.35;28.88;;;3.10;99.90;;;;;;5049648;28;20029;-56
2024/02/28 01:38:50;;;;;;;116.57;29.30;;;3.20;99.90;;;;;;5029338;28;20490;-55
2024/02/28 01:41:15;;;;;;;85.97;27.67;;;3.20;99.90;;;;;;5047381;28;20057;-56
2024/02/28 01:43:41;;;;;;;97.80;28.17;;;3.20;99.90;;;;;;5049740;28;20029;-53
2024/02/28 01:46:21;;;;;;;98.72;28.13;;;3.20;99.90;;;;;;5047433;28;20041;-58
2024/02/28 01:48:46;;;;;;;116.65;33.42;;;3.20;99.90;;;;;;5049019;28;20025;-56
2024/02/28 01:51:13;;;;;;;115.22;34.55;;;3.30;99.90;;;;;;5051465;28;20021;-58
2024/02/28 01:53:38;;;;;;;131.15;38.63;;;3.30;99.90;;;;;;5044409;28;20029;-56
2024/02/28 01:56:04;;;;;;;122.78;33.47;;;3.20;99.90;;;;;;5046087;28;20036;-57
2024/02/28 01:58:30;;;;;;;134.30;35.67;;;3.30;99.90;;;;;;5048511;28;20518;-58
2024/02/28 02:00:57;;;;;;;124.07;34.28;;;3.20;99.90;;;;;;5047015;28;20026;-57
2024/02/28 02:03:22;;;;;;;120.07;32.97;;;3.30;99.90;;;;;;5049543;28;20032;-56
2024/02/28 02:05:48;;;;;;;112.72;34.25;;;3.30;99.90;;;;;;5047737;28;20627;-56
2024/02/28 02:08:14;;;;;;;100.60;32.47;;;3.30;99.90;;;;;;5047202;28;20024;-56
2024/02/28 02:10:39;;;;;;;117.32;35.38;;;3.30;99.90;;;;;;5042844;28;20044;-56
2024/02/28 02:13:06;;;;;;;101.60;31.73;;;3.20;99.90;;;;;;5047393;28;20036;-56
2024/02/28 02:15:32;;;;;;;103.05;34.38;;;3.20;99.90;;;;;;5052254;28;20021;-54
2024/02/28 02:17:57;;;;;;;100.43;33.55;;;3.20;99.90;;;;;;5051866;28;20040;-56
2024/02/28 02:20:25;;;;;;;109.35;32.50;;;3.30;99.90;;;;;;5047694;28;20467;-54
2024/02/28 02:22:51;;;;;;;104.55;36.28;;;3.30;99.90;;;;;;5050786;28;20086;-57
2024/02/28 02:25:16;;;;;;;102.72;32.35;;;3.30;99.90;;;;;;5052640;28;20838;-57
2024/02/28 02:27:42;;;;;;;95.40;32.65;;;3.30;99.90;;;;;;5053675;28;20040;-57
2024/02/28 02:30:08;;;;;;;128.98;34.33;;;3.30;99.90;;;;;;5046913;28;20090;-55
2024/02/28 02:32:34;;;;;;;104.80;34.25;;;3.30;99.90;;;;;;5053285;28;20478;-54
2024/02/28 02:34:59;;;;;;;99.35;35.25;;;3.30;99.90;;;;;;5048726;28;20021;-57
2024/02/28 02:37:25;;;;;;;98.53;33.05;;;3.30;99.90;;;;;;5051511;28;20736;-58
2024/02/28 02:39:51;;;;;;;119.07;35.78;;;3.40;99.90;;;;;;5052182;28;20056;-57
2024/02/28 02:42:17;;;;;;;115.53;34.15;;;3.40;99.90;;;;;;5055239;28;20025;-53
2024/02/28 02:44:43;;;;;;;97.43;35.53;;;3.40;99.90;;;;;;5051256;28;20037;-56
2024/02/28 02:47:08;;;;;;;114.05;36.53;;;3.40;99.90;;;;;;5051508;28;20048;-57
2024/02/28 02:49:34;;;;;;;117.82;35.25;;;3.40;99.90;;;;;;5052467;28;20127;-53
2024/02/28 02:51:59;;;;;;;102.80;36.33;;;3.40;99.90;;;;;;5060425;28;20032;-58
2024/02/28 02:54:25;;;;;;;109.28;37.53;;;3.40;99.90;;;;;;5055677;28;20025;-56
2024/02/28 02:56:50;;;;;;;99.47;35.05;;;3.40;99.90;;;;;;5051409;28;20075;-58
2024/02/28 02:59:16;;;;;;;107.72;35.58;;;3.40;99.90;;;;;;5052124;28;20506;-57
2024/02/28 03:01:42;;;;;;;105.93;36.00;;;3.40;99.90;;;;;;5052823;28;20013;-56
2024/02/28 03:04:07;;;;;;;110.00;37.88;;;3.40;99.90;;;;;;5052307;28;20087;-54
2024/02/28 03:06:33;;;;;;;109.50;35.92;;;3.40;99.90;;;;;;5072432;23;20322;-53
2024/02/28 03:08:58;;;;;;;118.00;37.28;;;3.40;99.90;;;;;;5052149;28;20387;-55
2024/02/28 03:11:24;;;;;;;112.97;38.88;;;3.30;99.90;;;;;;5051102;28;20108;-52
2024/02/28 03:13:50;;;;;;;110.72;37.15;;;3.40;99.90;;;;;;5056087;28;20079;-58
2024/02/28 03:16:15;;;;;;;111.40;36.50;;;3.40;99.90;;;;;;5056518;28;20022;-51
2024/02/28 03:18:41;;;;;;;106.10;36.70;;;3.40;99.90;;;;;;5070568;28;20029;-56
2024/02/28 03:21:06;;;;;;;136.05;38.28;;;3.40;99.90;;;;;;5070057;28;20033;-52
2024/02/28 03:23:33;;;;;;;151.45;37.13;;;3.30;99.90;;;;;;5070663;28;20115;-52
2024/02/28 03:25:58;;;;;;;125.97;38.28;;;3.30;99.90;;;;;;5071820;28;20094;-56
2024/02/28 03:28:24;;;;;;;120.72;37.63;;;3.30;99.90;;;;;;5068981;28;20444;-54
2024/02/28 03:30:49;;;;;;;114.28;39.05;;;3.30;99.90;;;;;;5070129;28;20029;-53
2024/02/28 03:33:15;;;;;;;113.05;37.55;;;3.30;99.90;;;;;;5069986;28;20029;-51
2024/02/28 03:35:40;;;;;;;125.55;38.20;;;3.30;99.90;;;;;;5072168;28;20382;-53
2024/02/28 03:38:06;;;;;;;133.82;38.50;;;3.30;99.90;;;;;;5072667;28;20584;-53
2024/02/28 03:40:31;;;;;;;128.88;40.70;;;3.30;99.90;;;;;;5067320;28;20036;-55
2024/02/28 03:42:59;;;;;;;116.78;36.97;;;3.30;99.90;;;;;;5061083;28;20039;-53
2024/02/28 03:45:27;;;;;;;112.13;38.60;;;3.30;99.90;;;;;;5061296;28;20099;-50
2024/02/28 03:47:52;;;;;;;113.00;38.28;;;3.30;99.90;;;;;;5071775;28;20021;-51
2024/02/28 03:50:18;;;;;;;119.05;37.72;;;3.40;99.90;;;;;;5070166;28;20059;-51
2024/02/28 03:52:43;;;;;;;122.55;40.30;;;3.40;99.90;;;;;;5070393;28;20471;-55
2024/02/28 03:55:09;;;;;;;131.27;41.45;;;3.40;99.90;;;;;;5064612;28;20104;-52
2024/02/28 03:57:35;;;;;;;135.60;41.33;;;3.40;99.90;;;;;;5044880;28;20090;-51
2024/02/28 04:00:02;;;;;;;105.50;37.38;;;3.40;99.90;;;;;;5068627;28;20034;-55
2024/02/28 04:02:27;;;;;;;118.53;38.33;;;3.40;99.90;;;;;;5070109;28;20645;-52
2024/02/28 04:04:53;;;;;;;119.60;40.42;;;3.40;99.90;;;;;;5070069;28;20056;-51
2024/02/28 04:07:19;;;;;;;109.50;38.05;;;3.40;99.90;;;;;;5070234;28;20036;-53
2024/02/28 04:09:44;;;;;;;124.10;37.55;;;3.40;99.90;;;;;;5066631;28;20067;-62
2024/02/28 04:12:11;;;;;;;119.72;40.08;;;3.40;99.90;;;;;;5061274;28;20045;-53
2024/02/28 04:14:38;;;;;;;118.22;38.47;;;3.40;99.90;;;;;;5070510;28;20024;-56
2024/02/28 04:17:04;;;;;;;110.28;37.00;;;3.50;99.90;;;;;;5069954;28;20021;-54
2024/02/28 04:19:33;;;;;;;115.00;38.35;;;3.40;99.90;;;;;;5065664;28;20475;-53
2024/02/28 04:21:59;;;;;;;106.90;35.95;;;3.50;99.90;;;;;;5069938;28;20111;-54
2024/02/28 04:24:24;;;;;;;104.55;35.25;;;3.50;99.90;;;;;;5045581;28;20108;-54
2024/02/28 04:26:53;;;;;;;102.75;34.58;;;3.50;99.90;;;;;;5060717;28;20029;-52
2024/02/28 04:29:19;;;;;;;102.20;34.42;;;3.40;99.90;;;;;;5068538;28;20025;-53
2024/02/28 04:31:44;;;;;;;97.43;33.20;;;3.40;99.90;;;;;;5069436;28;20021;-54
2024/02/28 04:34:10;;;;;;;94.13;32.65;;;3.40;99.90;;;;;;5067920;28;20017;-53
2024/02/28 04:36:35;;;;;;;96.20;34.50;;;3.40;99.90;;;;;;5066762;28;20020;-55
2024/02/28 04:39:01;;;;;;;105.00;34.45;;;3.30;99.90;;;;;;5058277;28;20020;-55
2024/02/28 04:41:28;;;;;;;83.35;31.75;;;3.40;99.90;;;;;;5068795;28;20028;-55
2024/02/28 04:43:53;;;;;;;106.25;36.45;;;3.40;99.90;;;;;;5062657;28;20470;-54
2024/02/28 04:46:19;;;;;;;100.22;31.67;;;3.40;99.90;;;;;;5063949;28;20032;-51
2024/02/28 04:48:44;;;;;;;97.15;31.95;;;3.40;99.90;;;;;;5065618;28;20021;-55
2024/02/28 04:51:10;;;;;;;100.97;31.75;;;3.40;99.90;;;;;;5070712;28;20024;-55
2024/02/28 04:53:36;;;;;;;93.25;32.30;;;3.40;99.90;;;;;;5063971;28;20028;-54
2024/02/28 04:56:01;;;;;;;91.53;33.92;;;3.40;99.90;;;;;;5048702;28;20028;-54
2024/02/28 04:58:27;;;;;;;94.43;34.25;;;3.40;99.90;;;;;;5068994;28;20033;-58
2024/02/28 05:00:52;;;;;;;96.93;33.20;;;3.30;99.90;;;;;;5070502;28;20074;-53
2024/02/28 05:03:18;;;;;;;97.28;33.55;;;3.30;99.90;;;;;;5068862;28;20077;-52
2024/02/28 05:05:43;;;;;;;106.93;34.10;;;3.30;99.90;;;;;;5068254;28;20058;-54
2024/02/28 05:08:09;;;;;;;77.47;29.80;;;3.30;99.90;;;;;;5065340;28;20558;-54
2024/02/28 05:10:35;;;;;;;90.47;32.28;;;3.30;99.90;;;;;;5069989;28;20028;-53
2024/02/28 05:13:00;;;;;;;88.88;31.80;;;3.30;99.90;;;;;;5064688;28;20025;-52
2024/02/28 05:15:26;;;;;;;92.15;32.50;;;3.40;99.90;;;;;;5066204;28;20032;-56
2024/02/28 05:17:52;;;;;;;93.30;32.75;;;3.40;99.90;;;;;;5070367;28;20033;-51
2024/02/28 05:20:17;;;;;;;96.70;33.15;;;3.40;99.90;;;;;;5064513;28;20056;-52
2024/02/28 05:22:43;;;;;;;95.28;33.35;;;3.40;99.90;;;;;;5060501;28;20056;-57
2024/02/28 05:25:08;;;;;;;88.65;31.35;;;3.40;99.90;;;;;;5068980;28;20117;-54
2024/02/28 05:27:34;;;;;;;91.05;32.42;;;3.40;99.90;;;;;;5068075;28;20046;-55
2024/02/28 05:30:00;;;;;;;96.18;34.10;;;3.40;99.90;;;;;;5067683;28;20036;-57
2024/02/28 05:32:26;;;;;;;95.10;33.63;;;3.40;99.90;;;;;;5047825;28;20035;-55
2024/02/28 05:34:52;;;;;;;101.28;36.15;;;3.40;99.90;;;;;;5065984;28;20100;-57
2024/02/28 05:37:18;;;;;;;88.97;32.60;;;3.40;99.90;;;;;;5064996;28;20750;-52
2024/02/28 05:39:43;;;;;;;91.72;32.40;;;3.50;99.90;;;;;;5065255;28;20027;-51
2024/02/28 05:42:09;;;;;;;89.63;33.78;;;3.50;99.90;;;;;;5063582;28;20371;-51
2024/02/28 05:44:34;;;;;;;88.38;30.75;;;3.50;99.90;;;;;;5065634;28;20040;-55
2024/02/28 05:47:00;;;;;;;91.90;32.92;;;3.50;99.90;;;;;;5064287;28;20020;-55
2024/02/28 05:49:26;;;;;;;88.50;32.38;;;3.50;99.90;;;;;;5065702;28;20036;-54
2024/02/28 05:51:51;;;;;;;88.43;33.10;;;3.50;99.90;;;;;;5071774;28;20161;-56
2024/02/28 05:54:17;;;;;;;92.55;32.90;;;3.50;99.90;;;;;;5069547;28;20044;-54
2024/02/28 05:56:42;;;;;;;98.05;33.70;;;3.40;99.90;;;;;;5072134;28;20033;-52
2024/02/28 05:59:08;;;;;;;90.50;32.38;;;3.40;99.90;;;;;;5072729;28;20036;-53
2024/02/28 06:01:33;;;;;;;96.82;31.92;;;3.40;99.90;;;;;;5071099;28;20039;-56
2024/02/28 06:03:59;;;;;;;100.38;34.22;;;3.40;99.90;;;;;;5072526;28;20104;-55
2024/02/28 06:06:25;;;;;;;91.25;32.75;;;3.40;99.90;;;;;;5073650;28;20040;-56
2024/02/28 06:08:51;;;;;;;92.72;33.08;;;3.40;99.90;;;;;;5074045;28;20074;-56
2024/02/28 06:11:16;;;;;;;91.28;33.50;;;3.40;99.90;;;;;;5072432;28;20036;-56
2024/02/28 06:13:42;;;;;;;85.35;33.97;;;3.40;99.90;;;;;;5071532;28;20033;-53
2024/02/28 06:16:13;;;;;;;96.82;34.13;;;3.50;99.90;;;;;;5069145;28;20035;-52
2024/02/28 06:18:38;;;;;;;91.05;31.95;;;3.50;99.90;;;;;;5068091;28;20043;-57
2024/02/28 06:21:04;;;;;;;96.00;31.88;;;3.50;99.90;;;;;;5072580;28;20024;-54
2024/02/28 06:23:29;;;;;;;84.18;31.98;;;3.40;99.90;;;;;;5072676;28;20455;-54
2024/02/28 06:25:59;;;;;;;95.53;34.53;;;3.40;99.90;;;;;;5071274;28;20028;-55
2024/02/28 06:28:24;;;;;;;94.63;32.85;;;3.40;99.90;;;;;;5066824;28;20028;-59
2024/02/28 06:30:50;;;;;;;96.38;33.97;;;3.40;99.90;;;;;;5071124;28;20035;-56
2024/02/28 06:33:15;;;;;;;87.88;32.40;;;3.40;99.90;;;;;;5070074;28;20540;-55
2024/02/28 06:35:41;;;;;;;85.18;31.02;;;3.40;99.90;;;;;;5071381;28;20032;-55
2024/02/28 06:38:07;;;;;;;94.18;33.22;;;3.40;99.90;;;;;;5072623;28;20190;-58
2024/02/28 06:40:33;;;;;;;90.13;32.95;;;3.40;99.90;;;;;;5070475;28;20029;-58
2024/02/28 06:42:58;;;;;;;90.85;31.13;;;3.50;99.90;;;;;;5070033;28;20035;-54
2024/02/28 06:45:24;;;;;;;94.80;32.13;;;3.40;99.90;;;;;;5069281;28;20433;-53
2024/02/28 06:47:50;;;;;;;92.28;31.67;;;3.50;99.90;;;;;;5066033;28;20430;-54
2024/02/28 06:50:16;;;;;;;84.60;30.23;;;3.40;99.90;;;;;;5070680;28;20028;-53
2024/02/28 06:52:42;;;;;;;94.88;34.95;;;3.40;99.90;;;;;;5071763;28;20036;-56
2024/02/28 06:55:11;;;;;;;87.72;32.63;;;3.50;99.90;;;;;;5071784;28;20027;-58
2024/02/28 06:57:38;;;;;;;84.25;33.58;;;3.50;99.90;;;;;;5068317;28;20035;-52
2024/02/28 07:00:08;;;;;;;82.95;30.13;;;3.60;99.90;;;;;;5067986;28;20035;-58
2024/02/28 07:02:34;;;;;;;89.93;32.03;;;3.60;99.90;;;;;;5071825;28;20040;-54
2024/02/28 07:05:00;;;;;;;88.00;31.13;;;3.60;99.90;;;;;;5068497;28;20035;-55
2024/02/28 07:07:26;;;;;;;83.25;31.20;;;3.60;99.90;;;;;;5069880;28;20032;-57
2024/02/28 07:09:51;;;;;;;97.78;34.60;;;3.70;99.90;;;;;;5067213;28;20058;-57
2024/02/28 07:12:17;;;;;;;93.78;32.70;;;3.70;99.90;;;;;;5065747;28;20186;-54
2024/02/28 07:14:42;;;;;;;79.13;29.50;;;3.70;99.90;;;;;;5067495;28;20434;-57
2024/02/28 07:17:10;;;;;;;84.72;29.27;;;3.80;99.90;;;;;;5071592;28;20416;-55
2024/02/28 07:19:36;;;;;;;81.80;31.70;;;3.80;99.90;;;;;;5071273;28;20039;-58
2024/02/28 07:22:01;;;;;;;86.20;31.80;;;3.80;99.90;;;;;;5071702;28;20173;-56
2024/02/28 07:24:27;;;;;;;82.72;31.67;;;3.90;99.90;;;;;;5070149;28;20086;-57
2024/02/28 07:26:52;;;;;;;87.20;30.02;;;3.90;99.90;;;;;;5065441;28;20466;-56
2024/02/28 07:29:18;;;;;;;81.00;30.08;;;3.90;99.90;;;;;;5067148;28;20482;-55
2024/02/28 07:31:45;;;;;;;81.03;30.85;;;3.90;99.90;;;;;;5064719;28;20044;-54
2024/02/28 07:34:11;;;;;;;87.22;31.23;;;4.00;99.90;;;;;;5065818;28;20012;-56
2024/02/28 07:36:37;;;;;;;87.07;31.92;;;4.10;99.90;;;;;;5071247;28;20020;-56
2024/02/28 07:39:02;;;;;;;90.20;31.30;;;4.10;99.90;;;;;;5070120;28;20460;-56
2024/02/28 07:41:28;;;;;;;81.85;29.63;;;4.10;99.90;;;;;;5069220;28;20382;-56
2024/02/28 07:43:53;;;;;;;91.90;33.72;;;4.10;99.90;;;;;;5063516;28;20026;-57
2024/02/28 07:46:19;;;;;;;82.22;30.73;;;4.20;99.90;;;;;;5066207;28;20115;-59
2024/02/28 07:48:45;;;;;;;78.18;31.80;;;4.30;99.90;;;;;;5068962;28;20131;-57
2024/02/28 07:51:11;;;;;;;79.53;31.02;;;4.30;99.90;;;;;;5067691;28;20082;-58
2024/02/28 07:53:37;;;;;;;76.93;28.42;;;4.40;99.90;;;;;;5070640;28;20433;-52
2024/02/28 07:56:02;;;;;;;77.78;28.92;;;4.40;99.90;;;;;;5070351;28;20021;-51
2024/02/28 07:58:28;;;;;;;72.63;28.73;;;4.40;99.90;;;;;;5071068;28;20058;-56
2024/02/28 08:00:53;;;;;;;71.07;27.60;;;4.50;99.90;;;;;;5066572;28;20028;-55
2024/02/28 08:03:20;;;;;;;66.50;29.13;;;4.50;99.90;;;;;;5067339;28;20105;-55
2024/02/28 08:05:46;;;;;;;71.45;29.08;;;4.50;99.90;;;;;;5070453;28;20474;-54
2024/02/28 08:08:11;;;;;;;64.75;26.38;;;4.60;99.90;;;;;;5070031;28;20028;-51
2024/02/28 08:10:38;;;;;;;72.88;28.33;;;4.50;99.90;;;;;;5069994;28;20043;-55
2024/02/28 08:13:07;;;;;;;61.33;26.10;;;4.60;99.90;;;;;;5069564;28;20478;-54
2024/02/28 08:15:33;;;;;;;70.32;26.88;;;4.70;99.90;;;;;;5049532;28;20033;-54
2024/02/28 08:17:59;;;;;;;70.20;28.67;;;4.70;99.90;;;;;;5066963;28;20051;-51
2024/02/28 08:20:24;;;;;;;68.93;27.95;;;4.70;99.90;;;;;;5069697;28;20031;-54
2024/02/28 08:22:57;;;;;;;66.65;28.42;;;4.90;99.90;;;;;;5069906;28;20064;-56
2024/02/28 08:25:22;;;;;;;63.85;27.35;;;5.00;99.90;;;;;;5069499;28;20025;-54
2024/02/28 08:27:48;;;;;;;66.45;28.25;;;4.90;99.90;;;;;;5067708;28;20036;-53
2024/02/28 08:30:14;;;;;;;71.70;28.35;;;5.00;99.90;;;;;;5069145;28;20140;-58
2024/02/28 08:32:41;;;;;;;63.17;27.15;;;5.10;99.90;;;;;;5067177;28;20047;-54
2024/02/28 08:35:08;;;;;;;60.55;25.95;;;5.00;99.90;;;;;;5069939;28;20032;-52
2024/02/28 08:37:34;;;;;;;65.55;27.42;;;5.00;99.90;;;;;;5069911;28;20033;-52
2024/02/28 08:39:59;;;;;;;59.22;27.30;;;5.10;99.90;;;;;;5067974;28;20016;-54
2024/02/28 08:42:26;;;;;;;62.63;27.88;;;5.10;99.90;;;;;;5066518;28;20834;-57
2024/02/28 08:44:54;;;;;;;62.63;26.33;;;5.10;99.90;;;;;;5047360;28;20582;-51
2024/02/28 08:47:23;;;;;;;66.10;28.63;;;5.10;99.90;;;;;;5064554;28;20068;-55
2024/02/28 08:49:48;;;;;;;63.78;26.80;;;5.40;99.90;;;;;;5070099;28;20116;-57
2024/02/28 08:52:14;;;;;;;57.47;25.60;;;5.60;99.90;;;;;;5068304;28;20108;-56
2024/02/28 08:54:40;;;;;;;60.20;26.80;;;5.70;99.90;;;;;;5068951;28;20029;-54
2024/02/28 08:57:05;;;;;;;67.55;27.77;;;5.70;99.90;;;;;;5065267;28;20503;-53
2024/02/28 08:59:31;;;;;;;62.03;27.70;;;5.80;99.90;;;;;;5069638;28;20539;-57
2024/02/28 09:01:56;;;;;;;100.78;41.20;;;5.90;99.90;;;;;;5067673;28;20021;-55
2024/02/28 09:04:22;;;;;;;72.00;31.65;;;5.70;99.90;;;;;;5069619;28;20024;-53
2024/02/28 09:06:47;;;;;;;56.88;25.30;;;5.60;99.90;;;;;;5069845;28;20585;-58
2024/02/28 09:09:13;;;;;;;54.83;24.25;;;5.80;99.90;;;;;;5068480;28;20099;-54
2024/02/28 09:11:39;;;;;;;64.60;26.98;;;6.00;99.90;;;;;;5066529;28;20444;-55
2024/02/28 09:14:05;;;;;;;63.35;27.50;;;5.90;99.90;;;;;;5069091;28;20036;-54
2024/02/28 09:16:30;;;;;;;62.30;26.85;;;5.90;99.90;;;;;;5069611;28;20077;-55
2024/02/28 09:18:56;;;;;;;62.95;28.42;;;6.00;99.90;;;;;;5069140;28;20040;-55
2024/02/28 09:21:21;;;;;;;65.15;28.58;;;6.00;99.90;;;;;;5067372;28;20032;-53
2024/02/28 09:23:47;;;;;;;59.00;26.23;;;6.00;99.90;;;;;;5051860;28;20048;-56
2024/02/28 09:26:12;;;;;;;60.97;26.58;;;6.10;99.90;;;;;;5070815;28;20036;-53
2024/02/28 09:28:38;;;;;;;62.90;27.42;;;6.30;99.90;;;;;;5055473;28;20055;-57
2024/02/28 09:31:04;;;;;;;60.35;25.23;;;6.50;99.90;;;;;;5073321;28;20028;-55
2024/02/28 09:33:29;;;;;;;60.58;26.33;;;6.40;99.90;;;;;;5068229;28;20036;-57
2024/02/28 09:35:55;;;;;;;57.25;24.92;;;6.50;99.90;;;;;;5069745;28;20060;-52
2024/02/28 09:38:21;;;;;;;56.75;25.83;;;6.60;99.90;;;;;;5071764;28;20742;-54
2024/02/28 09:40:50;;;;;;;59.30;26.08;;;6.60;99.90;;;;;;5080737;22;21169;-58
2024/02/28 09:43:28;;;;;;;62.25;26.42;;;6.70;99.90;;;;;;5055497;28;20051;-59
2024/02/28 09:45:58;;;;;;;56.92;27.63;;;6.70;99.90;;;;;;5056617;28;20370;-61
2024/02/28 09:48:25;;;;;;;57.67;26.90;;;6.70;99.90;;;;;;5073267;28;20024;-60
2024/02/28 09:50:50;;;;;;;70.95;31.20;;;6.70;99.90;;;;;;5076288;28;20020;-56
2024/02/28 09:53:16;;;;;;;61.30;26.45;;;6.80;99.90;;;;;;5074637;28;20504;-57
2024/02/28 09:55:41;;;;;;;59.90;27.75;;;7.10;99.90;;;;;;5091759;28;20031;-58
2024/02/28 09:58:08;;;;;;;77.05;33.33;;;7.20;99.90;;;;;;5090239;28;20035;-61
2024/02/28 10:00:34;;;;;;;76.15;33.53;;;7.20;99.90;;;;;;5092332;28;20492;-59
2024/02/28 10:03:01;;;;;;;61.47;30.17;;;7.00;99.90;;;;;;5092978;28;20059;-59
2024/02/28 10:05:28;;;;;;;117.20;44.47;;;6.90;99.90;;;;;;5091457;28;20028;-56
2024/02/28 10:07:54;;;;;;;108.43;44.58;;;6.80;99.90;;;;;;5093039;28;20058;-58
2024/02/28 10:10:20;;;;;;;85.00;37.13;;;6.90;99.90;;;;;;5093497;28;20024;-59
2024/02/28 10:12:45;;;;;;;56.40;27.15;;;7.10;99.90;;;;;;5097055;28;20032;-58
2024/02/28 10:15:11;;;;;;;69.32;29.55;;;7.20;99.90;;;;;;5091496;28;20034;-58
2024/02/28 10:17:37;;;;;;;60.83;27.27;;;7.30;99.90;;;;;;5093338;28;20110;-60
2024/02/28 10:20:04;;;;;;;59.10;25.65;;;7.40;99.90;;;;;;5093212;28;20533;-58
2024/02/28 10:22:37;;;;;;;59.20;28.35;;;7.70;99.90;;;;;;5093104;28;20036;-59
2024/02/28 10:25:03;;;;;;;58.45;28.30;;;7.50;99.90;;;;;;5098643;28;20401;-57
2024/02/28 10:27:33;;;;;;;57.42;27.75;;;7.80;99.90;;;;;;5093014;28;20024;-59
2024/02/28 10:29:58;;;;;;;59.50;27.40;;;7.90;99.90;;;;;;5073593;28;20561;-57
2024/02/28 10:32:24;;;;;;;62.63;28.48;;;7.90;99.90;;;;;;5092471;28;20054;-60
2024/02/28 10:34:49;;;;;;;57.63;27.70;;;8.00;99.90;;;;;;5092068;28;20024;-60
2024/02/28 10:37:16;;;;;;;56.05;26.17;;;8.00;99.90;;;;;;5091732;28;21211;-61
2024/02/28 10:39:43;;;;;;;53.63;25.33;;;8.10;99.90;;;;;;5097388;28;20027;-60
2024/02/28 10:42:11;;;;;;;54.58;25.83;;;8.10;99.90;;;;;;5090224;28;20036;-60
2024/02/28 10:44:37;;;;;;;58.70;27.13;;;8.40;99.90;;;;;;5073683;28;20028;-60
2024/02/28 10:47:03;;;;;;;56.97;28.23;;;8.20;99.90;;;;;;5078193;28;20035;-58
2024/02/28 10:49:30;;;;;;;59.58;26.67;;;8.40;99.90;;;;;;5091276;28;20094;-57
2024/02/28 10:51:56;;;;;;;56.40;25.27;;;8.50;99.90;;;;;;5092252;28;20012;-55
2024/02/28 10:54:25;;;;;;;52.17;25.45;;;8.60;99.90;;;;;;5091646;28;20428;-57
2024/02/28 10:56:52;;;;;;;51.85;25.23;;;8.80;99.90;;;;;;5091156;28;20028;-57
2024/02/28 10:59:20;;;;;;;56.65;26.25;;;8.70;99.90;;;;;;5091805;28;20634;-57
2024/02/28 11:01:46;;;;;;;56.53;26.90;;;8.60;99.90;;;;;;5090945;28;20020;-58
2024/02/28 11:04:13;;;;;;;50.83;25.23;;;8.60;99.90;;;;;;5091255;28;20061;-62
2024/02/28 11:06:50;;;;;;;48.60;23.40;;;8.60;99.90;;;;;;5092332;28;20085;-59
2024/02/28 11:09:22;;;;;;;50.70;23.85;;;8.90;99.90;;;;;;5091546;28;20020;-58
2024/02/28 11:11:52;;;;;;;51.50;25.10;;;9.10;99.90;;;;;;5092245;28;20032;-59
2024/02/28 11:14:21;;;;;;;53.08;25.45;;;9.10;99.90;;;;;;5091895;28;20036;-58
2024/02/28 11:16:47;;;;;;;56.67;26.42;;;9.10;99.90;;;;;;5091044;28;20039;-58
2024/02/28 11:19:21;;;;;;;56.22;28.08;;;9.20;99.90;;;;;;5091519;28;20020;-59
2024/02/28 11:21:55;;;;;;;49.08;23.88;;;9.40;99.90;;;;;;5090273;28;20024;-60
2024/02/28 11:24:28;;;;;;;51.05;23.90;;;9.00;99.90;;;;;;5091662;28;20059;-61
2024/02/28 11:26:53;;;;;;;54.43;25.47;;;9.00;99.90;;;;;;5092352;28;20070;-59
2024/02/28 11:29:37;;;;;;;48.33;23.90;;;9.00;99.90;;;;;;5090565;28;20059;-60
2024/02/28 11:32:02;;;;;;;46.50;23.77;;;9.00;99.90;;;;;;5090070;28;20568;-60
2024/02/28 11:34:28;;;;;;;52.80;25.10;;;9.30;99.90;;;;;;5090890;28;20063;-58
2024/02/28 11:36:55;;;;;;;51.30;24.08;;;9.50;99.90;;;;;;5091151;28;20095;-59
2024/02/28 11:39:24;;;;;;;51.28;24.67;;;9.50;99.90;;;;;;5089565;28;20024;-60
2024/02/28 11:41:50;;;;;;;53.92;25.15;;;9.30;99.90;;;;;;5087510;28;20031;-60
2024/02/28 11:44:16;;;;;;;55.67;24.83;;;9.30;99.90;;;;;;5069939;28;20035;-59
2024/02/28 11:46:46;;;;;;;53.53;24.92;;;9.30;99.90;;;;;;5089429;28;20020;-60
2024/02/28 11:49:15;;;;;;;50.70;24.83;;;9.20;99.90;;;;;;5081636;28;20758;-58
2024/02/28 11:51:44;;;;;;;51.40;24.85;;;9.20;99.90;;;;;;5096236;28;20031;-59
2024/02/28 11:54:10;;;;;;;47.83;22.60;;;9.20;99.90;;;;;;5091935;28;20031;-57
2024/02/28 11:56:38;;;;;;;49.45;23.70;;;9.20;99.90;;;;;;5087900;28;20024;-58
2024/02/28 11:59:04;;;;;;;52.08;22.30;;;9.00;99.90;;;;;;5088343;28;20127;-59
2024/02/28 12:01:37;;;;;;;51.55;23.38;;;8.90;99.90;;;;;;5090912;28;20081;-59
2024/02/28 12:04:06;;;;;;;57.13;24.98;;;8.80;99.90;;;;;;5090670;28;20085;-60
2024/02/28 12:06:34;;;;;;;55.70;23.40;;;8.70;99.90;;;;;;5085678;28;20024;-59
2024/02/28 12:09:00;;;;;;;52.05;23.20;;;8.80;99.90;;;;;;5087562;28;20062;-59
2024/02/28 12:11:27;;;;;;;52.92;22.88;;;8.80;99.90;;;;;;5087668;28;20040;-60
2024/02/28 12:13:54;;;;;;;47.10;21.52;;;8.70;99.90;;;;;;5089264;28;20028;-59
2024/02/28 12:16:24;;;;;;;47.20;22.73;;;8.70;99.90;;;;;;5089707;28;20077;-60
2024/02/28 12:18:49;;;;;;;50.83;21.80;;;8.80;99.90;;;;;;5091010;28;20105;-60
2024/02/28 12:21:15;;;;;;;52.72;23.85;;;8.80;99.90;;;;;;5090830;28;20023;-60
2024/02/28 12:23:40;;;;;;;51.25;21.10;;;8.60;99.90;;;;;;5089084;28;20031;-60
2024/02/28 12:26:06;;;;;;;48.33;21.38;;;8.50;99.90;;;;;;5086702;28;20028;-60
2024/02/28 12:28:31;;;;;;;47.42;20.63;;;8.60;99.90;;;;;;5084996;28;20535;-61